Certoux — ZCEH2 — position and weather

sailwx.info

Track history (hours):
 
Tides and Currents Weather Stations Pressure Air Temp Water Temp Dewpoint Dewpoint Depression Visibility Wind Speed Wind Dir Waves Ship Positions

Certoux

Last reported at 2017-Sep-21 06:10 UTC. Time now 2017-Sep-21 07:13 UTC.
Position N 39°54' W 028°21'.

Length 289 m; draft 14.3 m.

Type: Cargo ship. MMSI: 310639000.

Date/timePositionNaut miles runAvg speedWind from/ knotsBaromVisibWave heightAir tempDewpointWater temp
2017-Sep-21 06:10N 39°54' W 028°21'511.4
2017-Sep-21 05:43N 39°55' W 028°27'211.1
2017-Sep-21 05:30N 39°55' W 028°30'611.5
2017-Sep-21 05:00N 39°56' W 028°38'811.6
2017-Sep-21 04:17N 39°57' W 028°49'311.9
2017-Sep-21 04:00N 39°58' W 028°53'611.8
2017-Sep-21 03:29N 39°59' W 029°01'611.6
2017-Sep-21 03:00N 39°60' W 029°08'612.1
2017-Sep-21 02:30N 40°00' W 029°16'612.4
2017-Sep-21 02:00N 40°01' W 029°24'  
2017-Sep-13 19:43N 36°42' W 074°04'3010.9
2017-Sep-13 17:00N 36°45' W 074°41'811.0
2017-Sep-13 16:15N 36°46' W 074°51'3910.6
2017-Sep-13 12:32N 36°48' W 075°40'2 9.6
2017-Sep-13 12:20N 36°48' W 075°43'3 8.9
2017-Sep-13 12:00N 36°49' W 075°46'5 9.5
2017-Sep-13 11:30N 36°52' W 075°51'5 9.6
2017-Sep-13 11:00N 36°55' W 075°55'5 9.4
2017-Sep-13 10:30N 36°58' W 075°60'4 8.9
2017-Sep-13 10:00N 37°02' W 076°03'21 8.0
2017-Sep-13 07:23N 37°23' W 076°05'8 8.6
2017-Sep-13 06:28N 37°30' W 076°03'4 8.5
2017-Sep-13 05:58N 37°35' W 076°03'4 8.6
2017-Sep-13 05:30N 37°38' W 076°06'4 8.1
2017-Sep-13 05:00N 37°41' W 076°10'510.1
2017-Sep-13 04:30N 37°46' W 076°11'612.3
2017-Sep-13 04:00N 37°52' W 076°10'611.8
2017-Sep-13 03:30N 37°58' W 076°10'611.5
2017-Sep-13 03:00N 38°03' W 076°13'611.5
2017-Sep-13 02:30N 38°09' W 076°14'611.2
2017-Sep-13 02:00N 38°14' W 076°16'611.1
2017-Sep-13 01:30N 38°19' W 076°18'510.8
2017-Sep-13 01:00N 38°24' W 076°21'510.8
2017-Sep-13 00:30N 38°29' W 076°24'510.9
2017-Sep-13 00:00N 38°34' W 076°26'611.1
2017-Sep-12 23:30N 38°40' W 076°25'611.5
2017-Sep-12 23:00N 38°45' W 076°26'611.9
2017-Sep-12 22:30N 38°51' W 076°24'612.3
2017-Sep-12 22:00N 38°57' W 076°23'510.1
2017-Sep-12 21:31N 39°02' W 076°23'5 9.2
2017-Sep-12 21:00N 39°07' W 076°24'4 8.8
2017-Sep-12 20:30N 39°11' W 076°26'4 8.6
2017-Sep-12 20:00N 39°13' W 076°31'3 6.7
2017-Sep-12 19:30N 39°15' W 076°34'0 0.4
2017-Sep-12 18:58N 39°15' W 076°34'0 0.0
2017-Sep-12 18:28N 39°15' W 076°34'0 0.0
2017-Sep-12 17:58N 39°15' W 076°34'0 0.0
2017-Sep-12 17:28N 39°15' W 076°34'0 0.0
2017-Sep-12 16:58N 39°15' W 076°34'0 0.0
2017-Sep-12 16:28N 39°15' W 076°34'0 0.0
2017-Sep-12 15:58N 39°15' W 076°34'0 0.0
2017-Sep-12 15:28N 39°15' W 076°34'0 0.0
2017-Sep-12 14:58N 39°15' W 076°34'0 0.0
2017-Sep-12 14:28N 39°15' W 076°34'0 0.0
2017-Sep-12 13:58N 39°15' W 076°34'0 0.0
2017-Sep-12 13:28N 39°15' W 076°34'0 0.0
2017-Sep-12 12:58N 39°15' W 076°34'0 0.0
2017-Sep-12 12:28N 39°15' W 076°34'0 0.0
2017-Sep-12 11:58N 39°15' W 076°34'0 0.0
2017-Sep-12 11:28N 39°15' W 076°34'0 0.0
2017-Sep-12 10:58N 39°15' W 076°34'0 0.0
2017-Sep-12 10:28N 39°15' W 076°34'0 0.0
2017-Sep-12 09:58N 39°15' W 076°34'0 0.0
2017-Sep-12 09:28N 39°15' W 076°34'0 0.0
2017-Sep-12 08:58N 39°15' W 076°34'0 0.0
2017-Sep-12 08:28N 39°15' W 076°34'0 0.0
2017-Sep-12 07:58N 39°15' W 076°34'0 0.0
2017-Sep-12 07:28N 39°15' W 076°34'0 0.0
2017-Sep-12 06:58N 39°15' W 076°34'0 0.0
2017-Sep-12 06:28N 39°15' W 076°34'0 0.0
2017-Sep-12 05:58N 39°15' W 076°34'0 0.0
2017-Sep-12 05:28N 39°15' W 076°34'0 0.0
2017-Sep-12 04:58N 39°15' W 076°34'0 0.0
2017-Sep-12 04:28N 39°15' W 076°34'0 0.0
2017-Sep-12 03:58N 39°15' W 076°34'0 0.0
2017-Sep-12 03:28N 39°15' W 076°34'0 0.0
2017-Sep-12 02:58N 39°15' W 076°34'0 0.0
2017-Sep-12 02:28N 39°15' W 076°34'0 0.0
2017-Sep-12 01:58N 39°15' W 076°34'0 0.0
2017-Sep-12 01:28N 39°15' W 076°34'0 0.0
2017-Sep-12 00:58N 39°15' W 076°34'0 0.0
2017-Sep-12 00:28N 39°15' W 076°34'0 0.0
2017-Sep-11 23:58N 39°15' W 076°34'0 0.0
2017-Sep-11 23:28N 39°15' W 076°34'0 0.0
2017-Sep-11 22:58N 39°15' W 076°34'0 0.0
2017-Sep-11 22:28N 39°15' W 076°34'0 0.0
2017-Sep-11 21:58N 39°15' W 076°34'0 0.0
2017-Sep-11 21:28N 39°15' W 076°34'0 0.0
2017-Sep-11 20:58N 39°15' W 076°34'0 0.0
2017-Sep-11 20:28N 39°15' W 076°34'0 0.0
2017-Sep-11 19:58N 39°15' W 076°34'0 0.0
2017-Sep-11 19:28N 39°15' W 076°34'0 0.0
2017-Sep-11 18:58N 39°15' W 076°34'0 0.0
2017-Sep-11 18:28N 39°15' W 076°34'0 0.0
2017-Sep-11 17:58N 39°15' W 076°34'0 0.0
2017-Sep-11 17:28N 39°15' W 076°34'0 0.0
2017-Sep-11 16:58N 39°15' W 076°34'0 0.0
2017-Sep-11 16:28N 39°15' W 076°34'0 0.0
2017-Sep-11 15:58N 39°15' W 076°34'0 0.0
2017-Sep-11 15:28N 39°15' W 076°34'0 0.0
2017-Sep-11 14:58N 39°15' W 076°34'0 0.0
2017-Sep-11 14:28N 39°15' W 076°34'0 0.0
2017-Sep-11 13:58N 39°15' W 076°34'0 0.0
2017-Sep-11 13:25N 39°15' W 076°34'0 0.0
2017-Sep-11 12:58N 39°15' W 076°34'0 0.0
2017-Sep-11 12:28N 39°15' W 076°34'0 0.0
2017-Sep-11 11:58N 39°15' W 076°34'0 0.0
2017-Sep-11 11:28N 39°15' W 076°34'0 0.0
2017-Sep-11 10:58N 39°15' W 076°34'0 0.0
2017-Sep-11 10:28N 39°15' W 076°34'0 0.0
2017-Sep-11 09:58N 39°15' W 076°34'0 0.0
2017-Sep-11 09:28N 39°15' W 076°34'0 0.0
2017-Sep-11 08:58N 39°15' W 076°34'0 0.0
2017-Sep-11 08:28N 39°15' W 076°34'0 0.0
2017-Sep-11 07:55N 39°15' W 076°34'0 0.0
2017-Sep-11 07:28N 39°15' W 076°34'0 0.0
2017-Sep-11 06:58N 39°15' W 076°34'0 0.0
2017-Sep-11 06:28N 39°15' W 076°34'  
Track history (hours):
 
Tides and Currents Weather Stations Pressure Air Temp Water Temp Dewpoint Dewpoint Depression Visibility Wind Speed Wind Dir Waves Ship Positions

Certoux

Last reported at 2017-Sep-21 06:10 UTC. Time now 2017-Sep-21 07:13 UTC.
Position N 39°54' W 028°21'.

Length 289 m; draft 14.3 m.

Type: Cargo ship. MMSI: 310639000.

Date/timePositionNaut miles runAvg speedWind from/ knotsBaromVisibWave heightAir tempDewpointWater temp
2017-Sep-21 06:10N 39°54' W 028°21'511.4
2017-Sep-21 05:43N 39°55' W 028°27'211.1
2017-Sep-21 05:30N 39°55' W 028°30'611.5
2017-Sep-21 05:00N 39°56' W 028°38'811.6
2017-Sep-21 04:17N 39°57' W 028°49'311.9
2017-Sep-21 04:00N 39°58' W 028°53'611.8
2017-Sep-21 03:29N 39°59' W 029°01'611.6
2017-Sep-21 03:00N 39°60' W 029°08'612.1
2017-Sep-21 02:30N 40°00' W 029°16'612.4
2017-Sep-21 02:00N 40°01' W 029°24'  
2017-Sep-13 19:43N 36°42' W 074°04'3010.9
2017-Sep-13 17:00N 36°45' W 074°41'811.0
2017-Sep-13 16:15N 36°46' W 074°51'3910.6
2017-Sep-13 12:32N 36°48' W 075°40'2 9.6
2017-Sep-13 12:20N 36°48' W 075°43'3 8.9
2017-Sep-13 12:00N 36°49' W 075°46'5 9.5
2017-Sep-13 11:30N 36°52' W 075°51'5 9.6
2017-Sep-13 11:00N 36°55' W 075°55'5 9.4
2017-Sep-13 10:30N 36°58' W 075°60'4 8.9
2017-Sep-13 10:00N 37°02' W 076°03'21 8.0
2017-Sep-13 07:23N 37°23' W 076°05'8 8.6
2017-Sep-13 06:28N 37°30' W 076°03'4 8.5
2017-Sep-13 05:58N 37°35' W 076°03'4 8.6
2017-Sep-13 05:30N 37°38' W 076°06'4 8.1
2017-Sep-13 05:00N 37°41' W 076°10'510.1
2017-Sep-13 04:30N 37°46' W 076°11'612.3
2017-Sep-13 04:00N 37°52' W 076°10'611.8
2017-Sep-13 03:30N 37°58' W 076°10'611.5
2017-Sep-13 03:00N 38°03' W 076°13'611.5
2017-Sep-13 02:30N 38°09' W 076°14'611.2
2017-Sep-13 02:00N 38°14' W 076°16'611.1
2017-Sep-13 01:30N 38°19' W 076°18'510.8
2017-Sep-13 01:00N 38°24' W 076°21'510.8
2017-Sep-13 00:30N 38°29' W 076°24'510.9
2017-Sep-13 00:00N 38°34' W 076°26'611.1
2017-Sep-12 23:30N 38°40' W 076°25'611.5
2017-Sep-12 23:00N 38°45' W 076°26'611.9
2017-Sep-12 22:30N 38°51' W 076°24'612.3
2017-Sep-12 22:00N 38°57' W 076°23'510.1
2017-Sep-12 21:31N 39°02' W 076°23'5 9.2
2017-Sep-12 21:00N 39°07' W 076°24'4 8.8
2017-Sep-12 20:30N 39°11' W 076°26'4 8.6
2017-Sep-12 20:00N 39°13' W 076°31'3 6.7
2017-Sep-12 19:30N 39°15' W 076°34'0 0.4
2017-Sep-12 18:58N 39°15' W 076°34'0 0.0
2017-Sep-12 18:28N 39°15' W 076°34'0 0.0
2017-Sep-12 17:58N 39°15' W 076°34'0 0.0
2017-Sep-12 17:28N 39°15' W 076°34'0 0.0
2017-Sep-12 16:58N 39°15' W 076°34'0 0.0
2017-Sep-12 16:28N 39°15' W 076°34'0 0.0
2017-Sep-12 15:58N 39°15' W 076°34'0 0.0
2017-Sep-12 15:28N 39°15' W 076°34'0 0.0
2017-Sep-12 14:58N 39°15' W 076°34'0 0.0
2017-Sep-12 14:28N 39°15' W 076°34'0 0.0
2017-Sep-12 13:58N 39°15' W 076°34'0 0.0
2017-Sep-12 13:28N 39°15' W 076°34'0 0.0
2017-Sep-12 12:58N 39°15' W 076°34'0 0.0
2017-Sep-12 12:28N 39°15' W 076°34'0 0.0
2017-Sep-12 11:58N 39°15' W 076°34'0 0.0
2017-Sep-12 11:28N 39°15' W 076°34'0 0.0
2017-Sep-12 10:58N 39°15' W 076°34'0 0.0
2017-Sep-12 10:28N 39°15' W 076°34'0 0.0
2017-Sep-12 09:58N 39°15' W 076°34'0 0.0
2017-Sep-12 09:28N 39°15' W 076°34'0 0.0
2017-Sep-12 08:58N 39°15' W 076°34'0 0.0
2017-Sep-12 08:28N 39°15' W 076°34'0 0.0
2017-Sep-12 07:58N 39°15' W 076°34'0 0.0
2017-Sep-12 07:28N 39°15' W 076°34'0 0.0
2017-Sep-12 06:58N 39°15' W 076°34'0 0.0
2017-Sep-12 06:28N 39°15' W 076°34'0 0.0
2017-Sep-12 05:58N 39°15' W 076°34'0 0.0
2017-Sep-12 05:28N 39°15' W 076°34'0 0.0
2017-Sep-12 04:58N 39°15' W 076°34'0 0.0
2017-Sep-12 04:28N 39°15' W 076°34'0 0.0
2017-Sep-12 03:58N 39°15' W 076°34'0 0.0
2017-Sep-12 03:28N 39°15' W 076°34'0 0.0
2017-Sep-12 02:58N 39°15' W 076°34'0 0.0
2017-Sep-12 02:28N 39°15' W 076°34'0 0.0
2017-Sep-12 01:58N 39°15' W 076°34'0 0.0
2017-Sep-12 01:28N 39°15' W 076°34'0 0.0
2017-Sep-12 00:58N 39°15' W 076°34'0 0.0
2017-Sep-12 00:28N 39°15' W 076°34'0 0.0
2017-Sep-11 23:58N 39°15' W 076°34'0 0.0
2017-Sep-11 23:28N 39°15' W 076°34'0 0.0
2017-Sep-11 22:58N 39°15' W 076°34'0 0.0
2017-Sep-11 22:28N 39°15' W 076°34'0 0.0
2017-Sep-11 21:58N 39°15' W 076°34'0 0.0
2017-Sep-11 21:28N 39°15' W 076°34'0 0.0
2017-Sep-11 20:58N 39°15' W 076°34'0 0.0
2017-Sep-11 20:28N 39°15' W 076°34'0 0.0
2017-Sep-11 19:58N 39°15' W 076°34'0 0.0
2017-Sep-11 19:28N 39°15' W 076°34'0 0.0
2017-Sep-11 18:58N 39°15' W 076°34'0 0.0
2017-Sep-11 18:28N 39°15' W 076°34'0 0.0
2017-Sep-11 17:58N 39°15' W 076°34'0 0.0
2017-Sep-11 17:28N 39°15' W 076°34'0 0.0
2017-Sep-11 16:58N 39°15' W 076°34'0 0.0
2017-Sep-11 16:28N 39°15' W 076°34'0 0.0
2017-Sep-11 15:58N 39°15' W 076°34'0 0.0
2017-Sep-11 15:28N 39°15' W 076°34'0 0.0
2017-Sep-11 14:58N 39°15' W 076°34'0 0.0
2017-Sep-11 14:28N 39°15' W 076°34'0 0.0
2017-Sep-11 13:58N 39°15' W 076°34'0 0.0
2017-Sep-11 13:25N 39°15' W 076°34'0 0.0
2017-Sep-11 12:58N 39°15' W 076°34'0 0.0
2017-Sep-11 12:28N 39°15' W 076°34'0 0.0
2017-Sep-11 11:58N 39°15' W 076°34'0 0.0
2017-Sep-11 11:28N 39°15' W 076°34'0 0.0
2017-Sep-11 10:58N 39°15' W 076°34'0 0.0
2017-Sep-11 10:28N 39°15' W 076°34'0 0.0
2017-Sep-11 09:58N 39°15' W 076°34'0 0.0
2017-Sep-11 09:28N 39°15' W 076°34'0 0.0
2017-Sep-11 08:58N 39°15' W 076°34'0 0.0
2017-Sep-11 08:28N 39°15' W 076°34'0 0.0
2017-Sep-11 07:55N 39°15' W 076°34'0 0.0
2017-Sep-11 07:28N 39°15' W 076°34'0 0.0
2017-Sep-11 06:58N 39°15' W 076°34'0 0.0
2017-Sep-11 06:28N 39°15' W 076°34'  

Dump ship's entire track history